Time;durP1;ratioP1;P1;durP2;ratioP2;P2;SDS_P1;SDS_P2;PMS_P1;PMS_P2;Temp;Humidity;BMP_temperature;BMP_pressure;BME280_temperature;BME280_humidity;BME280_pressure;Samples;Min_cycle;Max_cycle;Signal;HPM_P1;HPM_P2
2023/06/25 00:02:27;;;;;;;4.87;4.57;;;28.60;59.40;;;;;;4972219;28;20457;-82
2023/06/25 00:04:55;;;;;;;6.37;5.87;;;28.60;59.30;;;;;;4973206;28;20449;-83
2023/06/25 00:07:23;;;;;;;5.63;5.23;;;28.60;59.30;;;;;;4972419;28;20487;-83
2023/06/25 00:09:55;;;;;;;5.33;4.93;;;28.60;59.40;;;;;;4972341;28;20563;-83
2023/06/25 00:12:24;;;;;;;5.40;5.00;;;28.60;59.40;;;;;;4971227;28;20530;-82
2023/06/25 00:14:52;;;;;;;4.90;4.60;;;28.60;59.40;;;;;;4971470;28;20470;-82
2023/06/25 00:17:21;;;;;;;5.70;5.17;;;28.50;59.40;;;;;;4971721;28;20428;-83
2023/06/25 00:19:51;;;;;;;5.53;5.13;;;28.60;59.40;;;;;;4971607;28;20548;-83
2023/06/25 00:22:19;;;;;;;4.60;4.30;;;28.50;59.40;;;;;;4969409;28;20466;-83
2023/06/25 00:24:47;;;;;;;4.90;4.60;;;28.50;59.40;;;;;;4972865;28;20519;-83
2023/06/25 00:27:15;;;;;;;5.23;4.83;;;28.50;59.40;;;;;;4970822;28;20464;-83
2023/06/25 00:29:43;;;;;;;5.80;5.37;;;28.50;59.40;;;;;;4970968;28;21000;-83
2023/06/25 00:32:15;;;;;;;5.13;4.73;;;28.50;59.50;;;;;;4961814;28;20466;-83
2023/06/25 00:34:43;;;;;;;5.50;5.10;;;28.50;59.50;;;;;;4973117;28;20484;-82
2023/06/25 00:37:17;;;;;;;5.37;4.97;;;28.50;59.50;;;;;;4970826;28;20472;-83
2023/06/25 00:39:46;;;;;;;5.07;4.67;;;28.50;59.50;;;;;;4956460;28;20465;-83
2023/06/25 00:42:15;;;;;;;5.60;5.20;;;28.50;59.50;;;;;;4954596;28;20476;-83
2023/06/25 00:44:44;;;;;;;5.57;5.17;;;28.50;59.50;;;;;;4964580;28;20827;-83
2023/06/25 00:47:15;;;;;;;4.80;4.50;;;28.50;59.50;;;;;;4971264;28;20507;-83
2023/06/25 00:49:44;;;;;;;5.20;4.83;;;28.40;59.60;;;;;;4969495;28;20945;-82
2023/06/25 00:52:16;;;;;;;5.53;5.13;;;28.40;59.60;;;;;;4970883;28;20829;-83
2023/06/25 00:54:45;;;;;;;5.50;5.10;;;28.40;59.60;;;;;;4972637;28;20440;-83
2023/06/25 00:57:15;;;;;;;4.53;4.23;;;28.40;59.60;;;;;;4970056;28;20842;-83
2023/06/25 00:59:48;;;;;;;5.57;5.17;;;28.40;59.60;;;;;;4972419;28;20484;-82
2023/06/25 01:02:23;;;;;;;5.67;5.23;;;28.40;59.60;;;;;;4970497;28;20864;-83
2023/06/25 01:04:58;;;;;;;5.43;5.03;;;28.40;59.60;;;;;;4968949;28;20552;-83
2023/06/25 01:07:28;;;;;;;5.77;5.37;;;28.40;59.60;;;;;;4964340;28;20497;-83
2023/06/25 01:09:57;;;;;;;5.33;4.93;;;28.40;59.60;;;;;;4970794;28;21201;-83
2023/06/25 01:12:25;;;;;;;5.23;4.83;;;28.40;59.60;;;;;;4954187;28;20453;-83
2023/06/25 01:14:53;;;;;;;5.10;4.70;;;28.40;59.60;;;;;;4969942;28;20468;-83
2023/06/25 01:17:21;;;;;;;5.00;4.60;;;28.30;59.70;;;;;;4971132;28;20463;-83
2023/06/25 01:19:50;;;;;;;5.47;5.10;;;28.30;59.70;;;;;;4970583;28;20869;-83
2023/06/25 01:22:24;;;;;;;5.33;4.93;;;28.30;59.70;;;;;;4972070;28;20505;-83
2023/06/25 01:24:53;;;;;;;5.07;4.67;;;28.30;59.70;;;;;;4972514;28;20459;-83
2023/06/25 01:27:22;;;;;;;5.23;4.93;;;28.30;59.70;;;;;;4971161;28;20522;-82
2023/06/25 01:29:51;;;;;;;5.07;4.67;;;28.30;59.70;;;;;;4962255;28;20480;-83
2023/06/25 01:32:23;;;;;;;4.80;4.50;;;28.30;59.70;;;;;;4956454;29;20539;-83
2023/06/25 01:34:52;;;;;;;4.93;4.63;;;28.30;59.70;;;;;;4961188;28;20940;-83
2023/06/25 01:37:20;;;;;;;5.43;5.03;;;28.30;59.70;;;;;;4973866;28;20469;-82
2023/06/25 01:39:52;;;;;;;5.10;4.80;;;28.30;59.70;;;;;;4974163;28;20478;-83
2023/06/25 01:42:20;;;;;;;5.63;5.23;;;28.30;59.70;;;;;;4973651;28;20466;-83
2023/06/25 01:44:48;;;;;;;5.30;4.90;;;28.30;59.70;;;;;;4976108;28;20508;-83
2023/06/25 01:47:17;;;;;;;5.23;4.73;;;28.30;59.70;;;;;;4974976;28;20436;-84
2023/06/25 01:49:45;;;;;;;5.07;4.77;;;28.30;59.80;;;;;;4958859;28;20479;-83
2023/06/25 01:52:14;;;;;;;5.57;5.07;;;28.30;59.70;;;;;;4975639;28;20469;-83
2023/06/25 01:54:42;;;;;;;5.20;4.80;;;28.30;59.80;;;;;;4973793;28;20524;-83
2023/06/25 01:57:12;;;;;;;4.60;4.30;;;28.30;59.80;;;;;;4957351;28;20454;-83
2023/06/25 01:59:40;;;;;;;5.60;5.20;;;28.20;59.80;;;;;;4958336;28;20963;-83
2023/06/25 02:02:08;;;;;;;4.37;3.97;;;28.20;59.80;;;;;;4953198;28;20464;-83
2023/06/25 02:04:36;;;;;;;5.00;4.60;;;28.20;59.80;;;;;;4974708;28;20457;-83
2023/06/25 02:07:05;;;;;;;4.93;4.53;;;28.20;59.80;;;;;;4973940;28;20481;-83
2023/06/25 02:09:37;;;;;;;5.20;4.80;;;28.20;59.80;;;;;;4972775;28;20496;-83
2023/06/25 02:12:06;;;;;;;4.80;4.50;;;28.20;59.80;;;;;;4974498;28;20588;-83
2023/06/25 02:14:37;;;;;;;4.80;4.50;;;28.20;59.80;;;;;;4973993;28;20945;-83
2023/06/25 02:17:06;;;;;;;5.00;4.63;;;28.20;59.80;;;;;;4956690;28;20593;-83
2023/06/25 02:19:34;;;;;;;4.77;4.47;;;28.20;59.80;;;;;;4954759;28;20474;-83
2023/06/25 02:22:02;;;;;;;4.90;4.50;;;28.20;59.80;;;;;;4968623;28;20511;-83
2023/06/25 02:24:30;;;;;;;4.77;4.47;;;28.20;59.80;;;;;;4974944;28;20453;-82
2023/06/25 02:26:58;;;;;;;4.97;4.67;;;28.20;59.90;;;;;;4957404;28;20468;-83
2023/06/25 02:29:27;;;;;;;5.30;4.90;;;28.20;59.90;;;;;;4972067;28;20523;-83
2023/06/25 02:31:56;;;;;;;4.47;4.17;;;28.20;59.90;;;;;;4973243;28;20514;-83
2023/06/25 02:34:25;;;;;;;4.70;4.30;;;28.20;59.90;;;;;;4975008;28;20487;-83
2023/06/25 02:36:53;;;;;;;4.73;4.43;;;28.20;59.90;;;;;;4973270;28;20471;-83
2023/06/25 02:39:21;;;;;;;4.73;4.43;;;28.20;59.90;;;;;;4974224;28;20428;-83
2023/06/25 02:41:49;;;;;;;4.70;4.40;;;28.10;59.90;;;;;;4957031;28;20730;-82
2023/06/25 02:44:17;;;;;;;5.50;5.10;;;28.10;59.90;;;;;;4973899;28;20451;-83
2023/06/25 02:46:45;;;;;;;4.93;4.63;;;28.10;60.00;;;;;;4969233;28;20476;-82
2023/06/25 02:49:15;;;;;;;4.70;4.40;;;28.10;59.90;;;;;;4972936;28;20465;-83
2023/06/25 02:51:44;;;;;;;4.40;4.10;;;28.10;59.90;;;;;;4972845;28;20563;-83
2023/06/25 02:54:12;;;;;;;5.03;4.73;;;28.10;60.00;;;;;;4969702;28;20813;-82
2023/06/25 02:56:40;;;;;;;5.20;4.80;;;28.10;60.00;;;;;;4968808;28;20472;-83
2023/06/25 02:59:08;;;;;;;5.53;5.13;;;28.10;60.00;;;;;;4972878;28;20807;-83
2023/06/25 03:01:37;;;;;;;5.30;4.97;;;28.10;60.00;;;;;;4957881;28;20475;-83
2023/06/25 03:04:05;;;;;;;4.60;4.20;;;28.10;60.00;;;;;;4964039;28;21034;-83
2023/06/25 03:06:35;;;;;;;5.63;5.13;;;28.10;60.00;;;;;;4957823;28;20973;-82
2023/06/25 03:09:03;;;;;;;5.17;4.77;;;28.10;60.10;;;;;;4972570;28;20463;-83
2023/06/25 03:11:31;;;;;;;4.27;3.97;;;28.10;60.10;;;;;;4970791;28;20567;-83
2023/06/25 03:14:01;;;;;;;5.10;4.70;;;28.10;60.10;;;;;;4973292;28;20478;-83
2023/06/25 03:16:29;;;;;;;4.87;4.47;;;28.10;60.10;;;;;;4953089;28;21040;-83
2023/06/25 03:18:57;;;;;;;4.50;4.10;;;28.00;60.10;;;;;;4956294;28;20966;-83
2023/06/25 03:21:25;;;;;;;5.77;5.27;;;28.00;60.10;;;;;;4972879;28;20463;-83
2023/06/25 03:23:55;;;;;;;4.40;4.10;;;28.00;60.10;;;;;;4973355;28;20456;-83
2023/06/25 03:26:23;;;;;;;4.63;4.33;;;28.00;60.10;;;;;;4974074;28;20451;-83
2023/06/25 03:28:53;;;;;;;5.60;4.83;;;28.00;60.10;;;;;;4953415;28;20507;-83
2023/06/25 03:31:21;;;;;;;4.63;4.23;;;28.00;60.10;;;;;;4954670;28;20491;-83
2023/06/25 03:33:53;;;;;;;4.47;4.13;;;28.00;60.10;;;;;;4959743;28;20540;-83
2023/06/25 03:36:22;;;;;;;5.53;5.13;;;28.00;60.10;;;;;;4948684;28;20495;-83
2023/06/25 03:38:51;;;;;;;5.00;4.63;;;28.00;60.10;;;;;;4954146;29;20484;-83
2023/06/25 03:41:21;;;;;;;4.70;4.40;;;28.00;60.10;;;;;;4953604;29;20479;-83
2023/06/25 03:43:49;;;;;;;4.90;4.60;;;28.00;60.10;;;;;;4954642;28;21378;-83
2023/06/25 03:46:18;;;;;;;4.33;4.03;;;28.00;60.10;;;;;;4951670;28;20459;-83
2023/06/25 03:48:46;;;;;;;4.90;4.60;;;28.00;60.10;;;;;;4952698;29;20464;-83
2023/06/25 03:51:14;;;;;;;4.63;4.23;;;28.00;60.10;;;;;;4968709;28;21046;-82
2023/06/25 03:53:44;;;;;;;4.97;4.57;;;28.00;60.10;;;;;;4975129;28;20468;-83
2023/06/25 03:56:13;;;;;;;4.67;4.37;;;28.00;60.10;;;;;;4972467;28;20474;-83
2023/06/25 03:58:42;;;;;;;4.80;4.50;;;28.00;60.10;;;;;;4971521;28;20501;-83
2023/06/25 04:01:12;;;;;;;5.20;4.83;;;28.00;60.10;;;;;;4959664;28;20491;-83
2023/06/25 04:03:42;;;;;;;4.73;4.43;;;28.00;60.10;;;;;;4949662;28;20467;-83
2023/06/25 04:06:10;;;;;;;4.93;4.63;;;28.00;60.00;;;;;;4971463;28;20467;-83
2023/06/25 04:08:40;;;;;;;5.10;4.70;;;28.00;60.00;;;;;;4971310;28;20545;-83
2023/06/25 04:11:09;;;;;;;5.33;4.93;;;28.00;60.00;;;;;;4936388;29;20463;-83
2023/06/25 04:13:38;;;;;;;4.60;4.30;;;28.00;60.00;;;;;;4960651;28;21046;-83
2023/06/25 04:16:09;;;;;;;4.87;4.47;;;28.00;60.00;;;;;;4955858;28;20467;-83
2023/06/25 04:18:42;;;;;;;5.17;4.77;;;28.00;60.00;;;;;;4952911;28;20836;-83
2023/06/25 04:21:13;;;;;;;4.50;4.20;;;28.00;60.00;;;;;;4953595;29;20528;-83
2023/06/25 04:23:41;;;;;;;5.03;4.67;;;28.00;60.00;;;;;;4963355;28;20471;-83
2023/06/25 04:26:09;;;;;;;4.60;4.30;;;28.00;60.00;;;;;;4971618;28;20467;-83
2023/06/25 04:28:37;;;;;;;4.50;4.20;;;28.00;60.00;;;;;;4956312;28;20472;-83
2023/06/25 04:31:08;;;;;;;5.03;4.73;;;28.00;60.00;;;;;;4953994;28;20905;-83
2023/06/25 04:33:41;;;;;;;4.37;4.07;;;28.00;60.00;;;;;;4951716;28;20488;-83
2023/06/25 04:36:12;;;;;;;4.50;4.20;;;28.00;60.00;;;;;;4951865;28;20466;-83
2023/06/25 04:38:40;;;;;;;4.60;4.30;;;28.00;60.00;;;;;;4969801;28;20470;-82
2023/06/25 04:41:08;;;;;;;4.93;4.50;;;28.00;59.90;;;;;;4968429;28;20471;-82
2023/06/25 04:43:36;;;;;;;4.53;4.23;;;28.00;59.90;;;;;;4971921;28;20490;-83
2023/06/25 04:46:05;;;;;;;4.73;4.43;;;28.00;59.90;;;;;;4971115;28;20828;-83
2023/06/25 04:48:35;;;;;;;5.20;4.80;;;28.00;59.90;;;;;;4970604;28;20468;-83
2023/06/25 04:51:04;;;;;;;5.13;4.70;;;28.00;59.90;;;;;;4971355;28;20460;-83
2023/06/25 04:53:32;;;;;;;4.67;4.37;;;28.00;59.90;;;;;;4967017;28;20468;-83
2023/06/25 04:56:02;;;;;;;4.40;4.10;;;28.00;59.90;;;;;;4971190;28;20465;-83
2023/06/25 04:58:30;;;;;;;4.80;4.50;;;28.00;59.90;;;;;;4970800;28;20451;-82
2023/06/25 05:00:58;;;;;;;4.20;3.90;;;28.00;59.90;;;;;;4969139;28;20570;-83
2023/06/25 05:03:27;;;;;;;5.00;4.70;;;28.00;59.80;;;;;;4962214;28;20832;-83
2023/06/25 05:05:56;;;;;;;4.97;4.57;;;28.00;59.80;;;;;;4976927;28;20546;-83
2023/06/25 05:08:24;;;;;;;4.60;4.30;;;28.00;59.80;;;;;;4975722;28;20511;-83
2023/06/25 05:10:53;;;;;;;4.50;4.20;;;28.00;59.80;;;;;;4973410;28;20499;-82
2023/06/25 05:13:21;;;;;;;5.30;4.90;;;28.00;59.80;;;;;;4972288;28;20471;-83
2023/06/25 05:15:49;;;;;;;5.20;4.80;;;28.00;59.80;;;;;;4974362;28;20460;-83
2023/06/25 05:18:17;;;;;;;5.40;5.00;;;28.00;59.80;;;;;;4974670;28;20452;-83
2023/06/25 05:20:45;;;;;;;4.60;4.27;;;28.00;59.80;;;;;;4975580;28;20864;-83
2023/06/25 05:23:15;;;;;;;4.93;4.60;;;28.00;59.80;;;;;;4975886;28;20441;-83
2023/06/25 05:25:43;;;;;;;4.80;4.50;;;28.10;59.80;;;;;;4976453;28;20443;-83
2023/06/25 05:28:11;;;;;;;4.77;4.47;;;28.10;59.70;;;;;;4975726;28;20437;-83
2023/06/25 05:30:39;;;;;;;5.47;5.07;;;28.10;59.70;;;;;;4974571;28;20463;-82
2023/06/25 05:33:08;;;;;;;5.40;5.00;;;28.10;59.70;;;;;;4975488;28;20588;-83
2023/06/25 05:35:37;;;;;;;5.23;4.83;;;28.10;59.70;;;;;;4965434;28;20445;-83
2023/06/25 05:38:06;;;;;;;4.70;4.40;;;28.10;59.70;;;;;;4956055;29;20463;-83
2023/06/25 05:40:35;;;;;;;4.90;4.50;;;28.10;59.70;;;;;;4967651;28;20458;-83
2023/06/25 05:43:03;;;;;;;4.60;4.30;;;28.10;59.70;;;;;;4974845;28;20441;-83
2023/06/25 05:45:31;;;;;;;4.77;4.47;;;28.10;59.60;;;;;;4973988;28;20471;-83
2023/06/25 05:48:00;;;;;;;5.40;5.00;;;28.10;59.60;;;;;;4953391;28;20460;-83
2023/06/25 05:50:28;;;;;;;5.10;4.70;;;28.10;59.60;;;;;;4956561;29;20426;-83
2023/06/25 05:52:56;;;;;;;5.47;5.07;;;28.10;59.60;;;;;;4956636;29;20469;-83
2023/06/25 05:55:24;;;;;;;5.23;4.83;;;28.10;59.60;;;;;;4959377;28;20458;-83
2023/06/25 05:57:54;;;;;;;5.57;5.17;;;28.10;59.60;;;;;;4974785;28;20439;-83
2023/06/25 06:00:23;;;;;;;4.77;4.43;;;28.10;59.60;;;;;;4975795;28;20486;-82
2023/06/25 06:02:51;;;;;;;4.97;4.67;;;28.10;59.60;;;;;;4972927;28;21017;-82
2023/06/25 06:05:19;;;;;;;5.20;4.80;;;28.10;59.50;;;;;;4973813;28;20472;-83
2023/06/25 06:07:48;;;;;;;4.60;4.27;;;28.10;59.50;;;;;;4972083;28;20483;-83
2023/06/25 06:10:17;;;;;;;5.67;5.23;;;28.10;59.50;;;;;;4973588;28;20464;-83
2023/06/25 06:12:45;;;;;;;5.13;4.73;;;28.10;59.50;;;;;;4974349;28;20445;-82
2023/06/25 06:15:15;;;;;;;5.87;5.37;;;28.10;59.60;;;;;;4973782;28;20481;-83
2023/06/25 06:17:43;;;;;;;4.40;4.10;;;28.10;59.60;;;;;;4974563;28;20432;-83
2023/06/25 06:20:12;;;;;;;4.77;4.47;;;28.10;59.50;;;;;;4975063;28;20524;-82
2023/06/25 06:22:40;;;;;;;5.43;5.03;;;28.10;59.40;;;;;;4975464;28;20468;-83
2023/06/25 06:25:09;;;;;;;4.70;4.30;;;28.10;59.40;;;;;;4974841;28;20455;-83
2023/06/25 06:27:37;;;;;;;4.80;4.40;;;28.10;59.40;;;;;;4974006;28;20429;-83
2023/06/25 06:30:07;;;;;;;5.20;4.80;;;28.10;59.40;;;;;;4975328;28;20531;-83
2023/06/25 06:32:36;;;;;;;5.47;5.07;;;28.10;59.40;;;;;;4971828;28;20962;-83
2023/06/25 06:35:05;;;;;;;4.83;4.53;;;28.10;59.40;;;;;;4972434;28;20488;-83
2023/06/25 06:37:33;;;;;;;4.83;4.43;;;28.20;59.40;;;;;;4973311;28;20461;-82
2023/06/25 06:40:01;;;;;;;5.20;4.80;;;28.20;59.40;;;;;;4972084;28;20503;-83
2023/06/25 06:42:30;;;;;;;5.00;4.60;;;28.20;59.40;;;;;;4973770;28;20512;-82
2023/06/25 06:44:58;;;;;;;4.70;4.40;;;28.20;59.40;;;;;;4973979;28;20452;-82
2023/06/25 06:47:26;;;;;;;4.80;4.50;;;28.20;59.40;;;;;;4974224;28;20431;-83
2023/06/25 06:49:56;;;;;;;4.60;4.20;;;28.20;59.40;;;;;;4974617;28;20452;-82
2023/06/25 06:52:26;;;;;;;4.93;4.63;;;28.20;59.40;;;;;;4974323;28;20548;-83
2023/06/25 06:54:54;;;;;;;4.87;4.47;;;28.20;59.40;;;;;;4974431;28;20969;-83
2023/06/25 06:57:22;;;;;;;4.17;3.87;;;28.20;59.40;;;;;;4972264;28;20473;-83
2023/06/25 06:59:50;;;;;;;4.63;4.33;;;28.20;59.40;;;;;;4973865;28;20944;-83
2023/06/25 07:02:19;;;;;;;4.83;4.43;;;28.20;59.40;;;;;;4966195;28;20863;-83
2023/06/25 07:04:47;;;;;;;4.50;4.20;;;28.20;59.40;;;;;;4973737;28;20449;-83
2023/06/25 07:07:17;;;;;;;5.77;5.33;;;28.20;59.40;;;;;;4970940;28;20490;-83
2023/06/25 07:09:51;;;;;;;6.30;5.80;;;28.20;59.40;;;;;;4973629;28;20540;-82
2023/06/25 07:12:19;;;;;;;4.83;4.47;;;28.20;59.40;;;;;;4972421;28;20519;-83
2023/06/25 07:14:48;;;;;;;5.07;4.67;;;28.20;59.40;;;;;;4974155;28;20484;-83
2023/06/25 07:17:16;;;;;;;4.73;4.43;;;28.20;59.40;;;;;;4971359;28;20469;-82
2023/06/25 07:19:44;;;;;;;5.67;5.27;;;28.20;59.40;;;;;;4972632;28;20474;-83
2023/06/25 07:22:12;;;;;;;5.00;4.70;;;28.20;59.40;;;;;;4973719;28;20852;-83
2023/06/25 07:24:42;;;;;;;4.50;4.20;;;28.20;59.40;;;;;;4973789;28;20486;-83
2023/06/25 07:27:10;;;;;;;5.57;5.17;;;28.20;59.40;;;;;;4973261;28;20468;-83
2023/06/25 07:29:38;;;;;;;5.83;5.43;;;28.20;59.40;;;;;;4973531;28;20441;-83
2023/06/25 07:32:08;;;;;;;4.67;4.37;;;28.20;59.40;;;;;;4973427;28;20503;-83
2023/06/25 07:34:36;;;;;;;5.27;4.80;;;28.20;59.40;;;;;;4973434;28;20544;-83
2023/06/25 07:37:06;;;;;;;5.40;5.00;;;28.20;59.40;;;;;;4962964;28;20545;-83
2023/06/25 07:39:34;;;;;;;4.80;4.50;;;28.20;59.30;;;;;;4972891;28;20470;-83
2023/06/25 07:42:05;;;;;;;4.90;4.53;;;28.20;59.40;;;;;;4970292;28;20978;-83
2023/06/25 07:44:33;;;;;;;4.80;4.40;;;28.20;59.30;;;;;;4971409;28;20543;-83
2023/06/25 07:47:21;;;;;;;5.30;4.90;;;28.20;59.30;;;;;;4953334;29;20523;-82
2023/06/25 07:49:49;;;;;;;5.40;5.00;;;28.30;59.30;;;;;;4956054;28;20533;-84
2023/06/25 07:52:17;;;;;;;5.40;5.00;;;28.30;59.30;;;;;;4971163;28;20484;-83
2023/06/25 07:54:46;;;;;;;5.20;4.80;;;28.30;59.30;;;;;;4973406;28;20476;-83
2023/06/25 07:57:15;;;;;;;5.90;5.40;;;28.30;59.30;;;;;;4972669;28;20496;-82
2023/06/25 07:59:43;;;;;;;5.37;4.97;;;28.30;59.30;;;;;;4973152;28;20432;-83
2023/06/25 08:02:20;;;;;;;5.07;4.67;;;28.30;59.30;;;;;;4971192;28;20810;-83
2023/06/25 08:04:49;;;;;;;5.43;5.03;;;28.30;59.30;;;;;;4972891;28;20570;-83
2023/06/25 08:07:18;;;;;;;5.57;5.17;;;28.30;59.30;;;;;;4969583;28;20536;-83
2023/06/25 08:09:48;;;;;;;5.30;4.90;;;28.30;59.30;;;;;;4953884;28;20466;-82
2023/06/25 08:12:22;;;;;;;5.73;5.33;;;28.30;59.30;;;;;;4970833;28;21177;-83
2023/06/25 08:14:50;;;;;;;5.67;4.80;;;28.30;59.30;;;;;;4970053;28;20551;-82
2023/06/25 08:17:18;;;;;;;5.83;5.43;;;28.30;59.30;;;;;;4971964;28;20513;-83
2023/06/25 08:19:46;;;;;;;5.10;4.70;;;28.30;59.30;;;;;;4971533;28;20955;-83
2023/06/25 08:22:15;;;;;;;5.43;5.03;;;28.30;59.30;;;;;;4972460;28;20458;-83
2023/06/25 08:24:43;;;;;;;5.57;5.17;;;28.30;59.30;;;;;;4970982;28;20451;-83
2023/06/25 08:27:11;;;;;;;5.50;5.03;;;28.30;59.30;;;;;;4971955;28;20949;-83
2023/06/25 08:29:41;;;;;;;5.10;4.70;;;28.30;59.30;;;;;;4972768;28;20466;-83
2023/06/25 08:32:09;;;;;;;5.50;5.10;;;28.30;59.30;;;;;;4972467;28;20445;-83
2023/06/25 08:34:38;;;;;;;5.10;4.70;;;28.30;59.30;;;;;;4968984;28;20479;-83
2023/06/25 08:37:06;;;;;;;5.40;5.00;;;28.30;59.30;;;;;;4971892;28;20475;-82
2023/06/25 08:39:35;;;;;;;4.83;4.53;;;28.30;59.30;;;;;;4971321;28;20942;-83
2023/06/25 08:42:03;;;;;;;5.80;5.40;;;28.30;59.30;;;;;;4970404;28;20826;-83
2023/06/25 08:44:31;;;;;;;5.40;5.00;;;28.30;59.20;;;;;;4970740;28;20493;-83
2023/06/25 08:47:02;;;;;;;5.40;5.00;;;28.30;59.30;;;;;;4972236;28;20434;-83
2023/06/25 08:49:31;;;;;;;5.63;5.23;;;28.30;59.30;;;;;;4972348;28;20426;-83
2023/06/25 08:52:01;;;;;;;5.20;4.80;;;28.30;59.20;;;;;;4972376;28;20847;-83
2023/06/25 08:54:29;;;;;;;5.73;5.33;;;28.30;59.20;;;;;;4972592;28;20531;-83
2023/06/25 08:57:00;;;;;;;5.23;4.83;;;28.40;59.20;;;;;;4972028;28;20437;-83
2023/06/25 08:59:28;;;;;;;5.80;5.40;;;28.40;59.20;;;;;;4987761;28;20463;-83
2023/06/25 09:01:56;;;;;;;5.83;5.40;;;28.30;59.20;;;;;;4969114;28;20476;-83
2023/06/25 09:04:26;;;;;;;4.87;4.47;;;28.40;59.20;;;;;;4970681;28;20471;-83
2023/06/25 09:06:54;;;;;;;4.60;4.30;;;28.40;59.20;;;;;;4972303;28;20510;-83
2023/06/25 09:09:32;;;;;;;5.87;5.47;;;28.40;59.20;;;;;;4970814;28;20472;-83
2023/06/25 09:12:00;;;;;;;5.50;5.10;;;28.40;59.20;;;;;;4971659;28;20451;-83
2023/06/25 09:14:29;;;;;;;4.33;4.03;;;28.40;59.20;;;;;;4969727;28;20476;-83
2023/06/25 09:16:58;;;;;;;5.47;5.07;;;28.40;59.20;;;;;;4970227;28;20522;-83
2023/06/25 09:19:27;;;;;;;5.57;5.17;;;28.40;59.20;;;;;;4971039;28;20508;-83
2023/06/25 09:21:55;;;;;;;5.57;5.20;;;28.40;59.20;;;;;;4970624;28;20467;-83
2023/06/25 09:24:23;;;;;;;6.27;5.67;;;28.40;59.30;;;;;;4967936;28;20492;-83
2023/06/25 09:26:53;;;;;;;6.30;5.83;;;28.40;59.20;;;;;;4971259;28;20453;-83
2023/06/25 09:29:23;;;;;;;5.53;5.10;;;28.40;59.20;;;;;;4972834;28;20445;-83
2023/06/25 09:31:51;;;;;;;5.57;5.17;;;28.40;59.20;;;;;;4969861;28;20432;-83
2023/06/25 09:34:19;;;;;;;5.80;5.30;;;28.40;59.20;;;;;;4970299;28;20519;-83
2023/06/25 09:36:49;;;;;;;5.67;5.27;;;28.40;59.20;;;;;;4972246;28;20466;-82
2023/06/25 09:39:17;;;;;;;5.07;4.67;;;28.40;59.20;;;;;;4972072;28;20479;-83
2023/06/25 09:41:46;;;;;;;5.73;5.33;;;28.40;59.20;;;;;;4970071;28;20457;-83
2023/06/25 09:44:16;;;;;;;5.40;4.90;;;28.40;59.20;;;;;;4972631;28;20947;-83
2023/06/25 09:46:48;;;;;;;5.20;4.80;;;28.40;59.20;;;;;;4971416;28;20508;-83
2023/06/25 09:49:20;;;;;;;5.40;5.00;;;28.40;59.20;;;;;;4973213;28;20441;-83
2023/06/25 09:51:54;;;;;;;5.20;4.80;;;28.40;59.20;;;;;;4975728;28;20911;-83
2023/06/25 09:54:24;;;;;;;6.07;5.60;;;28.40;59.20;;;;;;4975406;28;20438;-83
2023/06/25 09:56:54;;;;;;;5.20;4.80;;;28.40;59.20;;;;;;4975294;28;21012;-84
2023/06/25 09:59:22;;;;;;;5.20;4.87;;;28.40;59.20;;;;;;4975581;28;20446;-83
2023/06/25 10:01:53;;;;;;;5.30;4.90;;;28.40;59.20;;;;;;4971624;28;20482;-83
2023/06/25 10:04:22;;;;;;;5.57;5.17;;;28.40;59.20;;;;;;4970355;28;20759;-83
2023/06/25 10:06:52;;;;;;;6.10;5.60;;;28.40;59.20;;;;;;4973621;28;20563;-83
2023/06/25 10:09:21;;;;;;;6.57;5.97;;;28.40;59.20;;;;;;4973957;28;20520;-83
2023/06/25 10:11:50;;;;;;;5.63;5.23;;;28.40;59.20;;;;;;4974513;28;20454;-83
2023/06/25 10:14:18;;;;;;;6.90;6.30;;;28.40;59.20;;;;;;4975697;28;20451;-83
2023/06/25 10:16:53;;;;;;;5.37;4.97;;;28.40;59.20;;;;;;4974570;28;20500;-83
2023/06/25 10:19:22;;;;;;;5.20;4.80;;;28.40;59.20;;;;;;4974514;28;20449;-83
2023/06/25 10:22:05;;;;;;;5.23;4.83;;;28.40;59.20;;;;;;4975238;28;20448;-83
2023/06/25 10:24:40;;;;;;;5.87;5.47;;;28.40;59.20;;;;;;4974410;28;20439;-82
2023/06/25 10:27:19;;;;;;;5.10;4.80;;;28.40;59.20;;;;;;4972927;28;20546;-83
2023/06/25 10:29:47;;;;;;;6.53;6.13;;;28.40;59.20;;;;;;4975019;28;20831;-83
2023/06/25 10:32:19;;;;;;;5.77;5.37;;;28.40;59.20;;;;;;4973904;28;20466;-83
2023/06/25 10:34:53;;;;;;;6.07;5.57;;;28.40;59.20;;;;;;4952508;28;20465;-83
2023/06/25 10:37:29;;;;;;;5.73;5.23;;;28.40;59.20;;;;;;4955758;29;20518;-83
2023/06/25 10:40:03;;;;;;;6.03;5.53;;;28.40;59.20;;;;;;4954216;29;20464;-83
2023/06/25 10:42:31;;;;;;;5.97;5.50;;;28.40;59.20;;;;;;4969154;28;20448;-83
2023/06/25 10:45:00;;;;;;;4.87;4.47;;;28.40;59.20;;;;;;4974460;28;20980;-83
2023/06/25 10:47:28;;;;;;;6.07;5.57;;;28.40;59.20;;;;;;4971054;28;20466;-83
2023/06/25 10:49:57;;;;;;;5.43;5.03;;;28.40;59.20;;;;;;4975063;28;20486;-83
2023/06/25 10:52:26;;;;;;;4.77;4.47;;;28.40;59.20;;;;;;4972121;28;20841;-83
2023/06/25 10:54:55;;;;;;;5.10;4.80;;;28.40;59.20;;;;;;4973594;28;20460;-83
2023/06/25 10:57:23;;;;;;;4.97;4.57;;;28.40;59.10;;;;;;4973912;28;20477;-83
2023/06/25 10:59:52;;;;;;;6.13;5.63;;;28.40;59.10;;;;;;4972143;28;20512;-83
2023/06/25 11:02:22;;;;;;;5.80;5.30;;;28.40;59.10;;;;;;4974008;28;20452;-83
2023/06/25 11:04:52;;;;;;;5.30;4.90;;;28.40;59.10;;;;;;4969366;28;20962;-83
2023/06/25 11:07:20;;;;;;;6.07;5.60;;;28.50;59.10;;;;;;4973949;28;20564;-83
2023/06/25 11:09:55;;;;;;;5.77;5.27;;;28.40;59.10;;;;;;4974381;28;20482;-83
2023/06/25 11:12:23;;;;;;;5.30;4.90;;;28.40;59.10;;;;;;4973737;28;20451;-83
2023/06/25 11:14:51;;;;;;;6.60;6.10;;;28.40;59.10;;;;;;4972618;28;20455;-83
2023/06/25 11:17:19;;;;;;;6.27;5.80;;;28.40;59.10;;;;;;4973565;28;20509;-83
2023/06/25 11:19:51;;;;;;;5.20;4.70;;;28.40;59.20;;;;;;4973723;28;20432;-83
2023/06/25 11:22:20;;;;;;;6.70;6.13;;;28.40;59.10;;;;;;4973110;28;20921;-83
2023/06/25 11:24:50;;;;;;;6.07;5.67;;;28.40;59.20;;;;;;4974363;28;20434;-83
2023/06/25 11:27:25;;;;;;;5.87;5.37;;;28.40;59.20;;;;;;4971618;28;20451;-83
2023/06/25 11:29:54;;;;;;;6.00;5.50;;;28.40;59.20;;;;;;4968912;28;20555;-83
2023/06/25 11:32:24;;;;;;;5.90;5.40;;;28.40;59.10;;;;;;4955608;28;21017;-83
2023/06/25 11:34:52;;;;;;;5.60;5.20;;;28.30;59.20;;;;;;4967597;28;21362;-83
2023/06/25 11:37:22;;;;;;;5.90;5.50;;;28.30;59.20;;;;;;4966763;28;20488;-83
2023/06/25 11:39:51;;;;;;;5.90;5.40;;;28.30;59.20;;;;;;4970808;28;20559;-83
2023/06/25 11:42:21;;;;;;;6.80;6.30;;;28.30;59.30;;;;;;4971580;28;20469;-82
2023/06/25 11:45:01;;;;;;;6.53;5.93;;;28.30;59.20;;;;;;4972652;28;20509;-83
2023/06/25 11:47:30;;;;;;;4.87;4.57;;;28.30;59.30;;;;;;4971553;28;20452;-83
2023/06/25 11:49:59;;;;;;;5.13;4.73;;;28.30;59.30;;;;;;4961132;28;20896;-82
2023/06/25 11:52:27;;;;;;;6.20;5.70;;;28.30;59.30;;;;;;4963198;28;20802;-83
2023/06/25 11:54:56;;;;;;;5.63;5.23;;;28.30;59.30;;;;;;4973537;28;20793;-83
2023/06/25 11:57:24;;;;;;;5.50;5.10;;;28.30;59.20;;;;;;4972823;28;20480;-83
2023/06/25 11:59:52;;;;;;;5.53;5.13;;;28.30;59.20;;;;;;4973721;28;20493;-83
2023/06/25 12:02:22;;;;;;;5.70;5.30;;;28.30;59.20;;;;;;4971119;28;20528;-83
2023/06/25 12:04:58;;;;;;;5.63;5.23;;;28.30;59.10;;;;;;4973298;28;20488;-83
2023/06/25 12:07:26;;;;;;;6.20;5.70;;;28.40;59.00;;;;;;4972693;28;20488;-83
2023/06/25 12:09:54;;;;;;;6.03;5.63;;;28.40;59.00;;;;;;4953664;29;20498;-83
2023/06/25 12:12:23;;;;;;;5.97;5.50;;;28.50;58.80;;;;;;4962779;28;20461;-83
2023/06/25 12:14:52;;;;;;;6.37;5.87;;;28.60;58.80;;;;;;4956052;28;20457;-83
2023/06/25 12:17:22;;;;;;;6.23;5.73;;;28.70;58.60;;;;;;4970892;28;20508;-83
2023/06/25 12:19:50;;;;;;;5.70;5.30;;;28.80;58.50;;;;;;4971234;28;20472;-83
2023/06/25 12:22:18;;;;;;;5.77;5.37;;;29.10;58.00;;;;;;4971718;28;20524;-83
2023/06/25 12:24:46;;;;;;;5.60;5.20;;;29.30;57.70;;;;;;4972681;28;20431;-84
2023/06/25 12:27:15;;;;;;;5.93;5.53;;;29.50;57.20;;;;;;4972375;28;20450;-83
2023/06/25 12:29:43;;;;;;;6.87;6.37;;;29.60;56.80;;;;;;4949249;29;20914;-82
2023/06/25 12:32:11;;;;;;;5.90;5.50;;;29.70;56.60;;;;;;4960167;28;20446;-83
2023/06/25 12:34:41;;;;;;;6.77;6.27;;;29.70;56.60;;;;;;4967920;28;20469;-83
2023/06/25 12:37:09;;;;;;;5.67;5.27;;;29.70;56.60;;;;;;4971423;28;20480;-83
2023/06/25 12:39:37;;;;;;;6.63;6.13;;;29.70;56.60;;;;;;4970657;28;20465;-84
2023/06/25 12:42:06;;;;;;;5.83;5.43;;;29.70;56.60;;;;;;4970498;28;20968;-83
2023/06/25 12:44:34;;;;;;;6.10;5.60;;;29.70;56.60;;;;;;4954243;28;20462;-83
2023/06/25 12:47:02;;;;;;;5.33;4.93;;;29.60;56.70;;;;;;4956070;28;20465;-83
2023/06/25 12:49:31;;;;;;;6.43;5.93;;;29.60;56.80;;;;;;4972986;28;20445;-83
2023/06/25 12:52:01;;;;;;;6.30;5.80;;;29.50;56.80;;;;;;4971431;28;20445;-82
2023/06/25 12:54:29;;;;;;;5.40;5.00;;;29.50;56.90;;;;;;4972364;28;20442;-83
2023/06/25 12:56:57;;;;;;;6.00;5.60;;;29.50;57.00;;;;;;4987142;28;20478;-83
2023/06/25 12:59:25;;;;;;;6.20;5.70;;;29.50;56.90;;;;;;4972498;28;20993;-83